createdAt,value
2018-10-21T00:00:00.190Z,1019.28
2018-10-21T00:01:00.773Z,1019.23
2018-10-21T00:02:01.381Z,1019.19
2018-10-21T00:03:02.017Z,1019.12
2018-10-21T00:04:02.578Z,1019.28
2018-10-21T00:05:03.154Z,1019.17
2018-10-21T00:06:03.728Z,1019.23
2018-10-21T00:07:04.305Z,1019.28
2018-10-21T00:08:04.877Z,1019.23
2018-10-21T00:09:05.543Z,1019.32
2018-10-21T00:10:06.077Z,1019.34
2018-10-21T00:11:06.699Z,1019.28
2018-10-21T00:12:07.272Z,1019.30
2018-10-21T00:13:07.897Z,1019.33
2018-10-21T00:14:08.472Z,1019.33
2018-10-21T00:15:09.081Z,1019.41
2018-10-21T00:16:09.656Z,1019.37
2018-10-21T00:17:10.232Z,1019.42
2018-10-21T00:18:10.811Z,1019.39
2018-10-21T00:19:11.382Z,1019.51
2018-10-21T00:20:11.956Z,1019.47
2018-10-21T00:21:12.637Z,1019.60
2018-10-21T00:22:13.147Z,1019.56
2018-10-21T00:23:13.720Z,1019.56
2018-10-21T00:24:14.294Z,1019.54
2018-10-21T00:25:14.878Z,1019.56
2018-10-21T00:26:15.685Z,1019.48
2018-10-21T00:27:16.396Z,1019.54
2018-10-21T00:28:16.834Z,1019.53
2018-10-21T00:29:17.456Z,1019.54
2018-10-21T00:30:18.029Z,1019.54
2018-10-21T00:31:18.604Z,1019.51
2018-10-21T00:32:19.228Z,1019.51
2018-10-21T00:33:19.802Z,1019.50
2018-10-21T00:34:20.377Z,1019.41
2018-10-21T00:35:20.950Z,1019.37
2018-10-21T00:36:21.525Z,1019.34
2018-10-21T00:37:22.099Z,1019.36
2018-10-21T00:38:22.673Z,1019.41
2018-10-21T00:39:23.250Z,1019.32
2018-10-21T00:40:23.828Z,1019.36
2018-10-21T00:41:24.407Z,1019.37
2018-10-21T00:42:24.972Z,1019.35
2018-10-21T00:43:25.545Z,1019.29
2018-10-21T00:44:26.120Z,1019.34
2018-10-21T00:45:26.694Z,1019.35
2018-10-21T00:46:27.318Z,1019.38
2018-10-21T00:47:27.894Z,1019.41
2018-10-21T00:48:28.517Z,1019.40
2018-10-21T00:49:29.142Z,1019.31
2018-10-21T00:50:29.719Z,1019.28
2018-10-21T00:51:30.295Z,1019.37
2018-10-21T00:52:30.870Z,1019.29
2018-10-21T00:53:31.443Z,1019.30
2018-10-21T00:54:32.018Z,1019.24
2018-10-21T00:55:32.636Z,1019.21
2018-10-21T00:56:33.219Z,1019.21
2018-10-21T00:57:33.784Z,1019.21
2018-10-21T00:58:34.360Z,1019.21
2018-10-21T00:59:34.982Z,1019.18
2018-10-21T01:00:35.551Z,1019.17
2018-10-21T01:01:36.124Z,1019.27
2018-10-21T01:02:36.699Z,1019.22
2018-10-21T01:03:37.271Z,1019.21
2018-10-21T01:04:37.845Z,1019.27
2018-10-21T01:05:38.470Z,1019.22
2018-10-21T01:06:39.093Z,1019.26
2018-10-21T01:07:39.664Z,1019.26
2018-10-21T01:08:40.310Z,1019.25
2018-10-21T01:09:40.864Z,1019.28
2018-10-21T01:10:41.438Z,1019.32
2018-10-21T01:11:42.010Z,1019.31
2018-10-21T01:12:42.584Z,1019.32
2018-10-21T01:13:43.159Z,1019.31
2018-10-21T01:15:28.037Z,1019.29
2018-10-21T01:16:28.610Z,1019.32
2018-10-21T01:17:29.184Z,1019.32
2018-10-21T01:18:29.757Z,1019.26
2018-10-21T01:19:30.334Z,1019.32
2018-10-21T01:20:30.959Z,1019.30
2018-10-21T01:21:31.525Z,1019.16
2018-10-21T01:22:32.152Z,1019.18
2018-10-21T01:23:32.722Z,1019.20
2018-10-21T01:24:33.295Z,1019.16
2018-10-21T01:25:33.922Z,1019.21
2018-10-21T01:26:34.544Z,1019.25
2018-10-21T01:27:35.123Z,1019.27
2018-10-21T01:28:35.694Z,1019.29
2018-10-21T01:29:36.268Z,1019.34
2018-10-21T01:30:36.840Z,1019.27
2018-10-21T01:31:37.415Z,1019.31
2018-10-21T01:32:37.998Z,1019.32
2018-10-21T01:33:38.562Z,1019.36
2018-10-21T01:34:39.135Z,1019.37
2018-10-21T01:35:39.710Z,1019.33
2018-10-21T01:36:40.368Z,1019.36
2018-10-21T01:37:40.910Z,1019.38
2018-10-21T01:38:41.481Z,1019.42
2018-10-21T01:39:42.056Z,1019.44
2018-10-21T01:40:42.681Z,1019.36
2018-10-21T01:41:43.255Z,1019.35
2018-10-21T01:42:43.834Z,1019.35
2018-10-21T01:43:44.447Z,1019.26
2018-10-21T01:44:45.025Z,1019.37
2018-10-21T01:45:45.594Z,1019.28
2018-10-21T01:46:46.167Z,1019.35
2018-10-21T01:47:46.741Z,1019.31
2018-10-21T01:48:47.316Z,1019.41
2018-10-21T01:49:47.894Z,1019.35
2018-10-21T01:50:48.514Z,1019.44
2018-10-21T01:51:49.088Z,1019.33
2018-10-21T01:52:49.661Z,1019.32
2018-10-21T01:53:50.240Z,1019.32
2018-10-21T01:54:50.813Z,1019.32
2018-10-21T01:55:51.436Z,1019.25
2018-10-21T01:56:52.018Z,1019.27
2018-10-21T01:57:52.626Z,1019.32
2018-10-21T01:58:53.201Z,1019.30
2018-10-21T01:59:53.778Z,1019.27
2018-10-21T02:00:54.348Z,1019.25
2018-10-21T02:01:54.973Z,1019.32
2018-10-21T02:02:55.556Z,1019.29
2018-10-21T02:03:56.166Z,1019.26
2018-10-21T02:04:56.749Z,1019.28
2018-10-21T02:05:57.407Z,1019.28
2018-10-21T02:06:58.020Z,1019.29
2018-10-21T02:07:58.593Z,1019.34
2018-10-21T02:08:59.182Z,1019.39
2018-10-21T02:09:59.784Z,1019.39
2018-10-21T02:11:00.359Z,1019.48
2018-10-21T02:12:00.932Z,1019.44
2018-10-21T02:13:01.506Z,1019.57
2018-10-21T02:14:02.967Z,1019.49
2018-10-21T02:15:03.532Z,1019.55
2018-10-21T02:16:04.118Z,1019.56
2018-10-21T02:17:04.742Z,1019.62
2018-10-21T02:18:06.127Z,1019.57
2018-10-21T02:25:04.510Z,1019.66
2018-10-21T02:26:05.087Z,1019.73
2018-10-21T02:27:05.751Z,1019.70
2018-10-21T02:28:06.342Z,1019.68
2018-10-21T02:29:06.866Z,1019.73
2018-10-21T02:30:07.440Z,1019.65
2018-10-21T02:31:08.215Z,1019.63
2018-10-21T02:32:08.788Z,1019.68
2018-10-21T02:33:09.504Z,1019.63
2018-10-21T02:34:09.988Z,1019.62
2018-10-21T02:35:10.563Z,1019.50
2018-10-21T02:36:11.176Z,1019.57
2018-10-21T02:37:11.753Z,1019.50
2018-10-21T02:38:12.376Z,1019.48
2018-10-21T02:39:13.590Z,1019.54
2018-10-21T02:40:14.123Z,1019.57
2018-10-21T02:41:14.697Z,1019.54
2018-10-21T02:42:15.271Z,1019.66
2018-10-21T02:43:15.842Z,1019.61
2018-10-21T02:44:16.469Z,1019.55
2018-10-21T02:45:17.124Z,1019.47
2018-10-21T02:48:23.144Z,1019.47
2018-10-21T02:49:23.780Z,1019.43
2018-10-21T02:50:24.356Z,1019.44
2018-10-21T02:51:24.937Z,1019.38
2018-10-21T02:52:25.519Z,1019.33
2018-10-21T02:53:26.099Z,1019.28
2018-10-21T02:54:26.680Z,1019.29
2018-10-21T02:55:27.261Z,1019.28
2018-10-21T02:56:27.842Z,1019.26
2018-10-21T02:57:28.423Z,1019.27
2018-10-21T02:58:29.004Z,1019.26
2018-10-21T02:59:29.583Z,1019.30
2018-10-21T03:00:30.213Z,1019.20
2018-10-21T03:01:30.792Z,1019.20
2018-10-21T03:03:50.657Z,1019.16
2018-10-21T03:04:57.497Z,1019.06
2018-10-21T03:05:58.079Z,1019.19
2018-10-21T03:11:26.806Z,1019.30
2018-10-21T03:13:29.011Z,1019.34
2018-10-21T03:14:29.591Z,1019.37
2018-10-21T03:16:14.636Z,1019.27
2018-10-21T03:17:15.215Z,1019.22
2018-10-21T03:18:15.873Z,1019.23
2018-10-21T03:19:16.414Z,1019.17
2018-10-21T03:20:36.297Z,1019.21
2018-10-21T03:21:36.878Z,1019.12
2018-10-21T03:22:37.513Z,1019.14
2018-10-21T03:24:39.647Z,1019.04
2018-10-21T03:25:40.222Z,1019.07
2018-10-21T03:26:40.793Z,1019.06
2018-10-21T03:27:41.362Z,1019.03
2018-10-21T03:28:41.987Z,1019.08
2018-10-21T03:29:42.602Z,1019.06
2018-10-21T03:30:43.220Z,1019.09
2018-10-21T03:31:43.790Z,1019.14
2018-10-21T03:32:44.497Z,1019.14
2018-10-21T03:33:45.074Z,1019.11
2018-10-21T03:34:45.557Z,1019.17
2018-10-21T03:35:46.130Z,1019.10
2018-10-21T03:36:46.748Z,1019.12
2018-10-21T03:38:31.617Z,1019.06
2018-10-21T03:39:32.233Z,1019.14
2018-10-21T03:40:32.763Z,1019.03
2018-10-21T03:41:33.385Z,1018.99
2018-10-21T03:42:33.957Z,1019.01
2018-10-21T03:43:34.531Z,1018.97
2018-10-21T03:44:35.103Z,1018.95
2018-10-21T03:45:35.686Z,1018.91
2018-10-21T03:46:36.253Z,1018.86
2018-10-21T03:47:36.874Z,1018.97
2018-10-21T03:48:37.499Z,1018.90
2018-10-21T03:49:38.070Z,1018.88
2018-10-21T03:50:38.645Z,1018.83
2018-10-21T03:51:39.218Z,1018.85
2018-10-21T03:52:39.790Z,1018.80
2018-10-21T03:53:40.364Z,1018.83
2018-10-21T03:54:40.937Z,1018.78
2018-10-21T03:55:41.509Z,1018.76
2018-10-21T03:56:42.086Z,1018.73
2018-10-21T03:57:42.662Z,1018.80
2018-10-21T03:58:43.236Z,1018.81
2018-10-21T04:00:28.160Z,1018.87
2018-10-21T04:01:28.777Z,1018.82
2018-10-21T04:02:29.356Z,1018.81
2018-10-21T04:03:29.975Z,1018.84
2018-10-21T04:04:30.551Z,1018.70
2018-10-21T04:05:31.124Z,1018.80
2018-10-21T04:06:31.699Z,1018.77
2018-10-21T04:07:32.272Z,1018.73
2018-10-21T04:08:32.897Z,1018.69
2018-10-21T04:09:33.473Z,1018.67
2018-10-21T04:10:34.047Z,1018.67
2018-10-21T04:11:34.627Z,1018.74
2018-10-21T04:12:35.193Z,1018.69
2018-10-21T04:13:35.766Z,1018.76
2018-10-21T04:14:36.340Z,1018.76
2018-10-21T04:15:36.961Z,1018.77
2018-10-21T04:16:37.543Z,1018.77
2018-10-21T04:17:38.152Z,1018.73
2018-10-21T04:18:38.725Z,1018.84
2018-10-21T04:19:39.348Z,1018.81
2018-10-21T04:20:39.921Z,1018.86
2018-10-21T04:22:24.795Z,1018.81
2018-10-21T04:23:25.367Z,1018.83
2018-10-21T04:24:25.943Z,1018.82
2018-10-21T04:25:26.516Z,1018.81
2018-10-21T04:26:27.090Z,1018.81
2018-10-21T04:27:27.708Z,1018.83
2018-10-21T04:28:28.288Z,1018.86
2018-10-21T04:33:13.783Z,1019.10
2018-10-21T04:34:14.424Z,1019.09
2018-10-21T04:35:15.027Z,1019.04
2018-10-21T04:36:15.554Z,1019.05
2018-10-21T04:51:22.217Z,1019.05
2018-10-21T04:52:22.790Z,1019.00
2018-10-21T04:53:23.365Z,1019.03
2018-10-21T04:54:23.947Z,1019.07
2018-10-21T04:55:24.513Z,1019.05
2018-10-21T04:56:25.091Z,1019.05
2018-10-21T04:57:25.709Z,1019.09
2018-10-21T04:58:26.333Z,1018.98
2018-10-21T04:59:26.914Z,1019.01
2018-10-21T05:00:27.487Z,1018.97
2018-10-21T05:01:28.099Z,1019.01
2018-10-21T05:02:28.671Z,1018.98
2018-10-21T05:03:29.245Z,1019.03
2018-10-21T05:04:29.819Z,1019.06
2018-10-21T05:05:30.394Z,1018.90
2018-10-21T05:06:30.969Z,1018.97
2018-10-21T05:07:31.575Z,1018.92
2018-10-21T05:08:32.120Z,1018.90
2018-10-21T05:09:32.689Z,1018.86
2018-10-21T05:10:33.262Z,1018.95
2018-10-21T05:11:33.890Z,1018.89
2018-10-21T05:13:18.802Z,1018.94
2018-10-21T05:14:19.375Z,1018.88
2018-10-21T05:15:20.028Z,1018.92
2018-10-21T05:16:20.645Z,1018.84
2018-10-21T05:17:21.334Z,1018.86
2018-10-21T05:18:21.910Z,1018.81
2018-10-21T05:19:22.483Z,1018.82
2018-10-21T05:20:23.060Z,1018.81
2018-10-21T05:21:23.631Z,1018.80
2018-10-21T05:22:24.214Z,1018.76
2018-10-21T05:23:24.780Z,1018.86
2018-10-21T05:24:25.351Z,1018.83
2018-10-21T05:25:25.931Z,1018.83
2018-10-21T05:26:26.542Z,1018.86
2018-10-21T05:27:27.118Z,1018.82
2018-10-21T05:28:27.688Z,1018.80
2018-10-21T05:29:28.261Z,1018.84
2018-10-21T05:30:28.935Z,1018.88
2018-10-21T05:31:29.510Z,1018.90
2018-10-21T05:32:30.183Z,1018.84
2018-10-21T05:33:30.857Z,1018.85
2018-10-21T05:35:15.731Z,1018.91
2018-10-21T05:36:16.315Z,1018.88
2018-10-21T05:37:16.881Z,1018.90
2018-10-21T05:38:17.496Z,1018.95
2018-10-21T05:39:18.071Z,1018.92
2018-10-21T05:40:18.703Z,1018.97
2018-10-21T05:41:19.270Z,1018.93
2018-10-21T05:42:19.834Z,1018.90
2018-10-21T05:43:20.408Z,1018.95
2018-10-21T05:44:20.983Z,1018.99
2018-10-21T05:45:21.560Z,1018.95
2018-10-21T05:46:22.129Z,1019.01
2018-10-21T05:47:22.708Z,1018.99
2018-10-21T05:48:23.277Z,1018.95
2018-10-21T05:49:23.943Z,1018.99
2018-10-21T05:50:24.575Z,1018.95
2018-10-21T05:51:25.155Z,1018.89
2018-10-21T05:52:25.739Z,1018.92
2018-10-21T05:53:26.316Z,1018.86
2018-10-21T06:10:44.839Z,1018.97
2018-10-21T06:11:45.459Z,1018.92
2018-10-21T06:12:46.088Z,1018.90
2018-10-21T06:13:46.668Z,1018.92
2018-10-21T06:17:08.160Z,1018.97
2018-10-21T06:19:10.340Z,1018.95
2018-10-21T06:20:10.914Z,1019.02
2018-10-21T06:21:11.485Z,1019.00
2018-10-21T06:22:12.191Z,1018.95
2018-10-21T06:23:12.784Z,1019.04
2018-10-21T06:24:13.369Z,1018.98
2018-10-21T06:25:13.987Z,1018.96
2018-10-21T06:26:14.569Z,1019.09
2018-10-21T06:27:15.158Z,1019.06
2018-10-21T06:28:15.727Z,1019.04
2018-10-21T06:29:16.355Z,1019.08
2018-10-21T06:30:16.985Z,1019.02
2018-10-21T06:31:17.571Z,1019.11
2018-10-21T06:32:18.184Z,1019.08
2018-10-21T06:33:18.763Z,1019.09
2018-10-21T06:34:19.340Z,1019.07
2018-10-21T06:35:19.917Z,1019.09
2018-10-21T06:36:20.495Z,1019.05
2018-10-21T06:37:21.074Z,1019.10
2018-10-21T06:39:06.181Z,1019.06
2018-10-21T06:40:06.732Z,1019.11
2018-10-21T06:41:07.363Z,1019.06
2018-10-21T06:42:07.945Z,1019.03
2018-10-21T06:43:08.525Z,1019.10
2018-10-21T06:44:09.104Z,1019.13
2018-10-21T06:45:09.728Z,1019.14
2018-10-21T06:46:10.265Z,1019.17
2018-10-21T06:47:10.840Z,1019.13
2018-10-21T06:48:11.420Z,1019.11
2018-10-21T06:49:12.022Z,1019.09
2018-10-21T06:50:12.627Z,1019.10
2018-10-21T06:51:13.389Z,1019.12
2018-10-21T06:52:13.787Z,1019.12
2018-10-21T06:53:14.414Z,1019.17
2018-10-21T06:54:14.999Z,1019.13
2018-10-21T06:55:15.573Z,1019.14
2018-10-21T06:56:16.201Z,1019.21
2018-10-21T06:57:16.930Z,1019.29
2018-10-21T06:58:17.399Z,1019.27
2018-10-21T06:59:17.978Z,1019.38
2018-10-21T07:01:03.023Z,1019.44
2018-10-21T07:02:03.642Z,1019.39
2018-10-21T07:03:04.220Z,1019.43
2018-10-21T07:04:04.808Z,1019.38
2018-10-21T07:05:05.441Z,1019.38
2018-10-21T07:06:05.967Z,1019.40
2018-10-21T07:07:06.538Z,1019.46
2018-10-21T07:08:07.117Z,1019.47
2018-10-21T07:09:07.745Z,1019.43
2018-10-21T07:10:08.394Z,1019.40
2018-10-21T07:11:08.905Z,1019.47
2018-10-21T07:12:09.490Z,1019.49
2018-10-21T07:13:10.070Z,1019.55
2018-10-21T07:14:10.639Z,1019.54
2018-10-21T07:15:11.272Z,1019.50
2018-10-21T07:16:11.907Z,1019.55
2018-10-21T07:17:12.423Z,1019.58
2018-10-21T07:18:12.998Z,1019.53
2018-10-21T07:19:13.626Z,1019.58
2018-10-21T07:20:14.208Z,1019.55
2018-10-21T07:21:14.785Z,1019.66
2018-10-21T07:22:59.829Z,1019.64
2018-10-21T07:24:00.407Z,1019.62
2018-10-21T07:25:00.986Z,1019.62
2018-10-21T07:26:01.565Z,1019.75
2018-10-21T07:27:02.194Z,1019.62
2018-10-21T07:28:02.844Z,1019.76
2018-10-21T07:29:03.360Z,1019.75
2018-10-21T07:30:03.930Z,1019.69
2018-10-21T07:31:04.507Z,1019.70
2018-10-21T07:32:05.087Z,1019.72
2018-10-21T07:33:05.666Z,1019.77
2018-10-21T07:34:06.258Z,1019.68
2018-10-21T07:35:06.823Z,1019.77
2018-10-21T07:36:07.420Z,1019.76
2018-10-21T07:37:08.039Z,1019.69
2018-10-21T07:38:08.658Z,1019.69
2018-10-21T07:39:09.237Z,1019.75
2018-10-21T07:40:09.822Z,1019.80
2018-10-21T07:41:10.393Z,1019.78
2018-10-21T07:42:10.973Z,1019.76
2018-10-21T07:43:11.601Z,1019.88
2018-10-21T07:44:56.742Z,1019.89
2018-10-21T07:45:57.379Z,1019.90
2018-10-21T07:46:57.903Z,1019.94
2018-10-21T07:47:58.483Z,1019.97
2018-10-21T07:48:59.068Z,1019.94
2018-10-21T07:49:59.640Z,1019.99
2018-10-21T07:51:00.219Z,1020.00
2018-10-21T07:52:00.854Z,1019.95
2018-10-21T07:53:01.384Z,1019.92
2018-10-21T07:54:01.963Z,1019.92
2018-10-21T07:55:02.592Z,1019.94
2018-10-21T07:56:03.307Z,1020.04
2018-10-21T07:57:03.889Z,1019.92
2018-10-21T07:58:04.515Z,1019.92
2018-10-21T07:59:05.051Z,1020.00
2018-10-21T08:00:05.626Z,1019.89
2018-10-21T08:01:06.314Z,1019.96
2018-10-21T08:02:06.843Z,1019.90
2018-10-21T08:03:07.453Z,1019.94
2018-10-21T08:04:08.048Z,1019.97
2018-10-21T08:05:08.616Z,1019.94
2018-10-21T08:06:53.650Z,1019.90
2018-10-21T08:07:54.228Z,1019.90
2018-10-21T08:08:54.807Z,1019.96
2018-10-21T08:09:55.392Z,1020.01
2018-10-21T08:10:55.966Z,1020.01
2018-10-21T08:11:56.545Z,1020.01
2018-10-21T08:12:57.175Z,1020.01
2018-10-21T08:13:57.752Z,1019.96
2018-10-21T08:14:58.395Z,1020.03
2018-10-21T08:15:58.912Z,1020.00
2018-10-21T08:16:59.487Z,1020.04
2018-10-21T08:18:00.065Z,1020.02
2018-10-21T08:19:00.645Z,1020.08
2018-10-21T08:20:01.223Z,1020.10
2018-10-21T08:21:01.898Z,1020.10
2018-10-21T08:22:02.507Z,1020.07
2018-10-21T08:23:03.057Z,1020.16
2018-10-21T08:24:03.687Z,1020.11
2018-10-21T08:25:04.263Z,1020.12
2018-10-21T08:26:04.841Z,1020.17
2018-10-21T08:27:05.436Z,1020.14
2018-10-21T08:28:50.562Z,1020.20
2018-10-21T08:29:51.142Z,1020.18
2018-10-21T08:30:51.722Z,1020.22
2018-10-21T08:31:52.303Z,1020.17
2018-10-21T08:32:52.882Z,1020.14
2018-10-21T08:33:53.544Z,1020.14
2018-10-21T08:34:54.038Z,1020.12
2018-10-21T08:35:54.621Z,1020.12
2018-10-21T08:36:55.194Z,1020.13
2018-10-21T08:37:55.774Z,1020.08
2018-10-21T08:38:56.356Z,1020.05
2018-10-21T08:39:56.991Z,1020.07
2018-10-21T08:40:57.711Z,1019.96
2018-10-21T08:41:58.289Z,1019.99
2018-10-21T08:42:58.866Z,1020.03
2018-10-21T08:43:59.442Z,1019.99
2018-10-21T08:46:01.648Z,1019.88
2018-10-21T08:47:02.194Z,1019.94
2018-10-21T08:48:16.720Z,1020.03
2018-10-21T08:51:34.286Z,1020.04
2018-10-21T08:52:34.872Z,1020.07
2018-10-21T08:53:35.490Z,1019.98
2018-10-21T08:54:36.069Z,1019.96
2018-10-21T08:55:36.648Z,1019.95
2018-10-21T08:56:37.227Z,1019.96
2018-10-21T08:57:37.815Z,1019.99
2018-10-21T08:58:38.391Z,1019.99
2018-10-21T08:59:39.061Z,1019.97
2018-10-21T09:00:39.688Z,1020.04
2018-10-21T09:01:40.309Z,1020.02
2018-10-21T09:02:40.888Z,1019.96
2018-10-21T09:03:41.467Z,1020.05
2018-10-21T09:04:42.050Z,1019.99
2018-10-21T09:05:42.626Z,1020.03
2018-10-21T09:06:43.205Z,1020.06
2018-10-21T09:07:43.831Z,1020.05
2018-10-21T09:08:44.408Z,1020.10
2018-10-21T09:09:44.988Z,1020.11
2018-10-21T09:11:30.028Z,1020.10
2018-10-21T09:12:30.606Z,1020.11
2018-10-21T09:13:31.184Z,1020.11
2018-10-21T09:14:31.822Z,1020.10
2018-10-21T09:15:32.473Z,1020.09
2018-10-21T09:22:24.845Z,1020.14
2018-10-21T09:23:25.617Z,1020.06
2018-10-21T09:24:26.238Z,1020.07
2018-10-21T09:25:26.860Z,1020.08
2018-10-21T09:26:27.431Z,1020.08
2018-10-21T09:27:28.004Z,1019.97
2018-10-21T09:28:50.301Z,1020.01
2018-10-21T09:32:47.836Z,1020.07
2018-10-21T09:33:48.404Z,1020.03
2018-10-21T09:34:49.028Z,1020.03
2018-10-21T09:35:49.601Z,1020.09
2018-10-21T09:36:50.177Z,1020.11
2018-10-21T09:37:50.762Z,1020.15
2018-10-21T09:38:51.330Z,1020.11
2018-10-21T09:39:51.908Z,1020.14
2018-10-21T09:40:52.535Z,1020.11
2018-10-21T09:48:22.363Z,1020.09
2018-10-21T09:49:22.942Z,1020.03
2018-10-21T09:50:37.488Z,1020.03
2018-10-21T09:51:38.108Z,1020.09
2018-10-21T09:52:38.727Z,1020.07
2018-10-21T09:53:39.345Z,1020.01
2018-10-21T09:54:39.925Z,1019.96
2018-10-21T09:55:40.507Z,1019.97
2018-10-21T09:56:41.128Z,1020.01
2018-10-21T09:57:41.706Z,1020.07
2018-10-21T09:58:42.366Z,1019.91
2018-10-21T09:59:42.902Z,1019.98
2018-10-21T10:00:43.491Z,1019.94
2018-10-21T10:01:44.061Z,1019.93
2018-10-21T10:02:44.645Z,1019.87
2018-10-21T10:03:45.338Z,1019.92
2018-10-21T10:04:45.945Z,1019.91
2018-10-21T10:05:46.524Z,1019.87
2018-10-21T10:06:47.132Z,1019.87
2018-10-21T10:07:47.731Z,1019.82
2018-10-21T10:08:48.371Z,1019.85
2018-10-21T10:09:48.926Z,1019.89
2018-10-21T10:10:49.508Z,1019.96
2018-10-21T10:12:34.390Z,1019.87
2018-10-21T10:13:34.969Z,1019.94
2018-10-21T10:14:35.550Z,1019.91
2018-10-21T10:15:36.180Z,1019.93
2018-10-21T10:16:36.761Z,1019.92
2018-10-21T10:17:37.404Z,1019.92
2018-10-21T10:18:37.928Z,1019.85
2018-10-21T10:19:38.506Z,1019.96
2018-10-21T10:20:39.087Z,1019.90
2018-10-21T10:21:39.669Z,1019.79
2018-10-21T10:23:41.932Z,1019.80
2018-10-21T10:24:43.763Z,1019.85
2018-10-21T10:26:45.979Z,1019.87
2018-10-21T10:27:46.566Z,1019.82
2018-10-21T10:28:47.154Z,1019.92
2018-10-21T10:29:47.904Z,1019.76
2018-10-21T10:30:48.333Z,1019.88
2018-10-21T10:31:48.916Z,1019.84
2018-10-21T10:32:49.503Z,1019.82
2018-10-21T10:34:34.558Z,1019.84
2018-10-21T10:35:35.145Z,1019.87
2018-10-21T10:36:35.734Z,1019.80
2018-10-21T10:37:36.323Z,1019.87
2018-10-21T10:38:36.910Z,1019.82
2018-10-21T10:39:37.495Z,1019.83
2018-10-21T10:40:38.133Z,1019.81
2018-10-21T10:41:38.925Z,1019.78
2018-10-21T10:42:39.458Z,1019.76
2018-10-21T10:43:40.046Z,1019.71
2018-10-21T10:44:40.682Z,1019.66
2018-10-21T10:45:41.267Z,1019.65
2018-10-21T10:46:41.853Z,1019.64
2018-10-21T10:47:42.442Z,1019.74
2018-10-21T10:48:43.027Z,1019.74
2018-10-21T10:49:43.613Z,1019.76
2018-10-21T10:50:44.201Z,1019.68
2018-10-21T10:51:44.787Z,1019.66
2018-10-21T10:52:45.373Z,1019.75
2018-10-21T10:53:45.957Z,1019.74
2018-10-21T10:54:46.544Z,1019.72
2018-10-21T10:56:31.596Z,1019.72
2018-10-21T10:57:32.184Z,1019.80
2018-10-21T10:58:32.771Z,1019.79
2018-10-21T10:59:33.452Z,1019.78
2018-10-21T11:00:34.045Z,1019.80
2018-10-21T11:01:34.634Z,1019.77
2018-10-21T11:02:35.221Z,1019.80
2018-10-21T11:03:35.807Z,1019.77
2018-10-21T11:04:36.446Z,1019.72
2018-10-21T11:05:37.036Z,1019.76
2018-10-21T11:06:37.622Z,1019.72
2018-10-21T11:07:38.207Z,1019.70
2018-10-21T11:08:38.795Z,1019.74
2018-10-21T11:09:39.381Z,1019.69
2018-10-21T11:10:39.966Z,1019.67
2018-10-21T11:11:40.552Z,1019.61
2018-10-21T11:12:41.143Z,1019.60
2018-10-21T11:13:41.725Z,1019.67
2018-10-21T11:14:42.399Z,1019.62
2018-10-21T11:15:43.034Z,1019.65
2018-10-21T11:16:43.622Z,1019.53
2018-10-21T11:18:28.684Z,1019.66
2018-10-21T11:19:29.306Z,1019.62
2018-10-21T11:20:29.893Z,1019.67
2018-10-21T11:21:30.483Z,1019.57
2018-10-21T11:22:31.173Z,1019.54
2018-10-21T11:23:31.747Z,1019.55
2018-10-21T11:24:32.335Z,1019.58
2018-10-21T11:25:32.927Z,1019.55
2018-10-21T11:26:33.508Z,1019.58
2018-10-21T11:27:34.096Z,1019.58
2018-10-21T11:28:34.684Z,1019.54
2018-10-21T11:29:35.319Z,1019.61
2018-10-21T11:30:36.005Z,1019.59
2018-10-21T11:31:36.691Z,1019.57
2018-10-21T11:32:37.379Z,1019.64
2018-10-21T11:33:37.963Z,1019.54
2018-10-21T11:34:38.549Z,1019.60
2018-10-21T11:35:39.187Z,1019.57
2018-10-21T11:36:39.835Z,1019.54
2018-10-21T11:37:40.468Z,1019.61
2018-10-21T11:38:40.989Z,1019.59
2018-10-21T11:40:26.041Z,1019.56
2018-10-21T11:41:26.667Z,1019.56
2018-10-21T11:42:27.254Z,1019.56
2018-10-21T11:43:27.846Z,1019.51
2018-10-21T11:44:28.430Z,1019.60
2018-10-21T11:45:29.051Z,1019.58
2018-10-21T11:46:29.654Z,1019.53
2018-10-21T11:47:30.230Z,1019.52
2018-10-21T11:48:30.866Z,1019.56
2018-10-21T11:49:31.453Z,1019.51
2018-10-21T11:50:32.090Z,1019.56
2018-10-21T11:51:32.677Z,1019.50
2018-10-21T11:52:33.288Z,1019.59
2018-10-21T11:53:33.849Z,1019.57
2018-10-21T11:54:34.486Z,1019.57
2018-10-21T11:55:35.071Z,1019.57
2018-10-21T11:56:35.658Z,1019.52
2018-10-21T11:57:36.243Z,1019.49
2018-10-21T11:58:36.879Z,1019.61
2018-10-21T11:59:37.466Z,1019.64
2018-10-21T12:00:38.051Z,1019.59
2018-10-21T12:02:23.156Z,1019.55
2018-10-21T12:03:23.785Z,1019.60
2018-10-21T12:04:24.372Z,1019.52
2018-10-21T12:05:24.960Z,1019.57
2018-10-21T12:06:25.546Z,1019.50
2018-10-21T12:07:26.132Z,1019.47
2018-10-21T12:08:26.770Z,1019.54
2018-10-21T12:09:27.357Z,1019.49
2018-10-21T12:10:27.945Z,1019.49
2018-10-21T12:11:28.542Z,1019.45
2018-10-21T12:12:29.170Z,1019.50
2018-10-21T12:13:29.755Z,1019.43
2018-10-21T12:14:30.344Z,1019.42
2018-10-21T12:15:30.929Z,1019.40
2018-10-21T12:16:31.664Z,1019.42
2018-10-21T12:17:32.250Z,1019.34
2018-10-21T12:18:32.888Z,1019.37
2018-10-21T12:19:33.476Z,1019.42
2018-10-21T12:20:34.061Z,1019.34
2018-10-21T12:21:34.651Z,1019.33
2018-10-21T12:22:35.310Z,1019.24
2018-10-21T12:24:20.328Z,1019.33
2018-10-21T12:25:21.007Z,1019.33
2018-10-21T12:26:21.503Z,1019.35
2018-10-21T12:27:22.139Z,1019.39
2018-10-21T12:28:22.729Z,1019.39
2018-10-21T12:29:23.364Z,1019.36
2018-10-21T12:30:23.951Z,1019.39
2018-10-21T12:31:24.546Z,1019.31
2018-10-21T12:32:25.137Z,1019.37
2018-10-21T12:33:25.712Z,1019.34
2018-10-21T12:34:26.353Z,1019.29
2018-10-21T12:35:26.939Z,1019.37
2018-10-21T12:36:27.521Z,1019.30
2018-10-21T12:37:28.109Z,1019.31
2018-10-21T12:38:28.697Z,1019.30
2018-10-21T12:39:29.280Z,1019.28
2018-10-21T12:40:29.867Z,1019.24
2018-10-21T12:41:30.455Z,1019.26
2018-10-21T12:42:31.080Z,1019.26
2018-10-21T12:43:31.672Z,1019.30
2018-10-21T12:44:32.255Z,1019.27
2018-10-21T12:46:17.385Z,1019.25
2018-10-21T12:47:18.019Z,1019.21
2018-10-21T12:48:18.814Z,1019.27
2018-10-21T12:49:19.491Z,1019.24
2018-10-21T12:50:19.986Z,1019.22
2018-10-21T12:51:20.624Z,1019.25
2018-10-21T12:52:21.211Z,1019.25
2018-10-21T12:53:21.799Z,1019.21
2018-10-21T12:54:22.396Z,1019.25
2018-10-21T12:55:22.979Z,1019.28
2018-10-21T12:56:23.602Z,1019.26
2018-10-21T12:57:24.237Z,1019.26
2018-10-21T12:58:24.831Z,1019.30
2018-10-21T12:59:25.455Z,1019.28
2018-10-21T13:00:26.039Z,1019.25
2018-10-21T13:01:26.625Z,1019.26
2018-10-21T13:02:27.239Z,1019.32
2018-10-21T13:03:27.809Z,1019.22
2018-10-21T13:04:28.533Z,1019.28
2018-10-21T13:05:29.127Z,1019.33
2018-10-21T13:06:29.705Z,1019.23
2018-10-21T13:08:14.804Z,1019.29
2018-10-21T13:09:15.390Z,1019.27
2018-10-21T13:10:16.060Z,1019.24
2018-10-21T13:11:16.605Z,1019.31
2018-10-21T13:12:17.191Z,1019.29
2018-10-21T13:13:17.870Z,1019.22
2018-10-21T13:14:18.412Z,1019.32
2018-10-21T13:15:19.003Z,1019.27
2018-10-21T13:16:19.631Z,1019.41
2018-10-21T13:17:20.262Z,1019.33
2018-10-21T13:18:20.841Z,1019.35
2018-10-21T13:19:21.425Z,1019.37
2018-10-21T13:20:22.009Z,1019.33
2018-10-21T13:21:22.647Z,1019.30
2018-10-21T13:22:23.273Z,1019.27
2018-10-21T13:23:23.863Z,1019.28
2018-10-21T13:24:24.441Z,1019.33
2018-10-21T13:25:25.027Z,1019.24
2018-10-21T13:26:25.610Z,1019.29
2018-10-21T13:27:26.224Z,1019.27
2018-10-21T13:28:26.993Z,1019.25
2018-10-21T13:30:11.974Z,1019.34
2018-10-21T13:31:12.606Z,1019.27
2018-10-21T13:32:13.147Z,1019.31
2018-10-21T13:33:13.733Z,1019.26
2018-10-21T13:34:14.369Z,1019.35
2018-10-21T13:35:14.906Z,1019.36
2018-10-21T13:36:15.584Z,1019.45
2018-10-21T13:37:16.250Z,1019.36
2018-10-21T13:38:16.752Z,1019.28
2018-10-21T13:39:17.339Z,1019.32
2018-10-21T13:40:18.058Z,1019.37
2018-10-21T13:41:18.508Z,1019.33
2018-10-21T13:42:19.143Z,1019.33
2018-10-21T13:43:19.735Z,1019.28
2018-10-21T13:44:20.312Z,1019.29
2018-10-21T13:45:20.895Z,1019.38